Time;durP1;ratioP1;P1;durP2;ratioP2;P2;SDS_P1;SDS_P2;PMS_P1;PMS_P2;Temp;Humidity;BMP_temperature;BMP_pressure;BME280_temperature;BME280_humidity;BME280_pressure;Samples;Min_cycle;Max_cycle;Signal;HPM_P1;HPM_P2
2022/01/30 00:00:36;;;;;;;6.40;2.27;;;13.10;99.90;;;;;;10211793;29;20704;-85
2022/01/30 00:05:38;;;;;;;6.53;1.37;;;13.10;99.00;;;;;;10193538;29;20238;-85
2022/01/30 00:10:42;;;;;;;4.13;1.60;;;12.90;99.90;;;;;;10210615;29;20622;-85
2022/01/30 00:15:49;;;;;;;6.07;2.17;;;13.00;99.90;;;;;;10178113;29;20290;-85
2022/01/30 00:21:06;;;;;;;5.47;2.43;;;12.90;99.90;;;;;;10193218;29;20243;-85
2022/01/30 00:26:09;;;;;;;8.83;1.90;;;12.90;99.90;;;;;;10210759;29;20635;-85
2022/01/30 00:31:14;;;;;;;5.90;2.03;;;12.30;99.90;;;;;;10177203;29;20782;-85
2022/01/30 00:36:18;;;;;;;7.07;1.80;;;12.80;99.90;;;;;;10210825;29;20238;-84
2022/01/30 00:41:20;;;;;;;8.17;2.70;;;13.00;99.90;;;;;;10193491;29;20230;-85
2022/01/30 00:46:23;;;;;;;6.03;2.03;;;13.10;99.90;;;;;;10175290;29;20701;-85
2022/01/30 00:51:26;;;;;;;4.97;1.87;;;13.00;99.10;;;;;;10192362;29;20262;-85
2022/01/30 00:56:29;;;;;;;5.20;1.97;;;13.00;96.00;;;;;;10192091;29;20230;-85
2022/01/30 01:01:33;;;;;;;7.83;2.23;;;12.90;97.30;;;;;;10192482;29;20250;-85
2022/01/30 01:06:38;;;;;;;6.00;2.13;;;12.90;96.30;;;;;;10208534;29;20234;-85
2022/01/30 01:27:34;;;;;;;4.30;1.63;;;13.20;96.70;;;;;;10191319;29;20320;-85
2022/01/30 01:32:36;;;;;;;8.93;1.67;;;13.00;95.70;;;;;;10209120;29;20255;-85
2022/01/30 01:37:39;;;;;;;7.83;2.10;;;13.20;96.10;;;;;;10176175;29;20242;-84
2022/01/30 01:42:43;;;;;;;5.77;1.83;;;13.00;96.30;;;;;;10175299;29;20251;-85
2022/01/30 01:47:46;;;;;;;7.10;1.40;;;13.30;95.50;;;;;;10208433;29;20210;-85
2022/01/30 01:52:49;;;;;;;5.40;1.50;;;13.10;95.30;;;;;;10208095;29;20254;-85
2022/01/30 01:57:52;;;;;;;4.00;1.40;;;13.20;94.50;;;;;;10191352;29;20262;-85
2022/01/30 02:03:18;;;;;;;7.77;1.60;;;13.10;94.90;;;;;;10190657;29;20246;-85
2022/01/30 02:08:35;;;;;;;5.77;2.63;;;13.10;95.10;;;;;;10175484;29;20231;-85
2022/01/30 02:29:48;;;;;;;2.43;1.00;;;13.20;94.90;;;;;;10186417;29;20237;-85
2022/01/30 02:34:51;;;;;;;8.83;1.80;;;13.10;94.60;;;;;;10215441;28;20265;-85
2022/01/30 02:39:53;;;;;;;5.40;1.80;;;13.10;95.10;;;;;;10211693;29;20744;-85
2022/01/30 02:45:00;;;;;;;2.77;1.50;;;13.20;94.70;;;;;;10214391;29;20691;-85
2022/01/30 02:50:15;;;;;;;6.27;1.47;;;13.30;94.50;;;;;;10197225;29;20685;-85
2022/01/30 02:55:20;;;;;;;4.83;2.00;;;13.20;94.60;;;;;;10176437;29;21098;-85
2022/01/30 03:00:22;;;;;;;2.60;1.23;;;12.70;94.80;;;;;;10180310;29;20203;-85
2022/01/30 03:05:25;;;;;;;5.00;1.10;;;12.90;95.30;;;;;;10170104;29;20666;-85
2022/01/30 03:10:27;;;;;;;9.13;1.87;;;13.10;95.10;;;;;;10205649;29;20227;-84
2022/01/30 03:15:30;;;;;;;4.73;1.53;;;13.00;94.80;;;;;;10161703;29;20231;-85
2022/01/30 03:20:32;;;;;;;6.73;1.73;;;12.60;95.50;;;;;;10196487;29;20235;-85
2022/01/30 03:25:37;;;;;;;7.20;1.20;;;13.00;95.30;;;;;;10195993;29;20246;-84
2022/01/30 03:31:07;;;;;;;7.37;1.47;;;13.10;95.00;;;;;;10173689;29;20748;-84
2022/01/30 03:36:14;;;;;;;4.33;1.50;;;13.10;95.10;;;;;;10156718;29;20276;-85
2022/01/30 03:41:18;;;;;;;3.93;1.67;;;13.10;94.90;;;;;;10155596;29;20247;-85
2022/01/30 03:46:23;;;;;;;6.00;2.27;;;13.00;95.00;;;;;;10155797;29;20298;-84
2022/01/30 03:51:45;;;;;;;3.90;1.27;;;13.10;94.00;;;;;;10144225;29;20263;-84
2022/01/30 03:56:56;;;;;;;2.33;1.30;;;13.20;93.80;;;;;;10145419;29;20203;-84
2022/01/30 04:02:02;;;;;;;6.57;1.70;;;13.20;93.90;;;;;;10158831;29;20365;-85
2022/01/30 04:07:06;;;;;;;5.03;1.77;;;13.00;94.10;;;;;;10160472;29;20212;-85
2022/01/30 04:12:33;;;;;;;5.10;1.53;;;13.00;93.80;;;;;;10122822;29;20221;-85
2022/01/30 04:17:44;;;;;;;7.67;1.43;;;13.00;93.60;;;;;;10134229;29;20197;-85
2022/01/30 04:23:04;;;;;;;3.53;1.20;;;13.00;90.90;;;;;;10143549;29;20214;-85
2022/01/30 04:28:25;;;;;;;3.57;1.03;;;13.00;93.10;;;;;;10164661;29;20216;-86
2022/01/30 04:33:55;;;;;;;4.60;1.63;;;12.80;93.40;;;;;;10180276;29;20212;-84
2022/01/30 05:02:43;;;;;;;4.50;1.73;;;12.90;91.90;;;;;;10237753;29;20230;-85
2022/01/30 05:08:02;;;;;;;3.30;1.00;;;13.00;92.10;;;;;;10219255;29;20188;-85
2022/01/30 05:13:29;;;;;;;4.67;1.97;;;12.80;92.10;;;;;;10223293;29;20222;-85
2022/01/30 05:18:45;;;;;;;3.97;1.03;;;12.80;92.30;;;;;;10220785;29;20196;-85
2022/01/30 05:23:51;;;;;;;5.37;1.53;;;12.80;91.00;;;;;;10241915;29;20587;-85
2022/01/30 05:29:12;;;;;;;4.80;1.67;;;12.80;92.50;;;;;;10243137;29;20234;-85
2022/01/30 05:34:38;;;;;;;6.17;1.20;;;12.90;92.20;;;;;;10241506;29;20252;-85
2022/01/30 05:40:01;;;;;;;5.40;1.13;;;12.90;92.30;;;;;;10218346;29;20274;-85
2022/01/30 05:50:50;;;;;;;2.13;1.10;;;12.80;92.20;;;;;;10181733;29;20631;-85
2022/01/30 05:56:16;;;;;;;6.53;1.60;;;13.00;91.80;;;;;;10195708;29;20203;-85
2022/01/30 06:01:19;;;;;;;7.37;1.77;;;13.10;91.70;;;;;;10179674;29;20218;-84
2022/01/30 06:06:23;;;;;;;2.13;1.10;;;13.00;91.70;;;;;;10195029;29;20199;-85
2022/01/30 06:11:26;;;;;;;4.63;1.53;;;12.60;92.40;;;;;;10183846;29;20638;-85
2022/01/30 06:16:29;;;;;;;3.50;1.20;;;12.90;92.00;;;;;;10162269;29;20231;-85
2022/01/30 06:21:38;;;;;;;6.63;1.13;;;12.70;92.30;;;;;;10175458;29;20227;-85
2022/01/30 06:26:59;;;;;;;4.37;2.37;;;12.60;92.60;;;;;;10203066;29;20262;-86
2022/01/30 06:32:20;;;;;;;5.40;1.60;;;12.90;91.90;;;;;;10197132;29;20251;-86
2022/01/30 06:37:40;;;;;;;6.13;1.60;;;13.00;91.90;;;;;;10206386;29;20238;-86
2022/01/30 06:43:01;;;;;;;7.43;1.47;;;12.80;91.60;;;;;;10192783;29;20231;-86
2022/01/30 06:48:26;;;;;;;6.93;1.63;;;12.90;91.90;;;;;;10208891;29;20242;-85
2022/01/30 06:53:40;;;;;;;6.57;1.40;;;12.90;91.90;;;;;;10200513;29;20254;-86
2022/01/30 06:58:55;;;;;;;6.03;1.50;;;12.90;92.00;;;;;;10218887;29;20243;-86
2022/01/30 07:04:21;;;;;;;4.50;1.60;;;12.80;91.60;;;;;;10201828;29;20305;-86
2022/01/30 07:09:42;;;;;;;3.37;1.10;;;12.80;92.00;;;;;;10222666;29;20238;-86
2022/01/30 07:14:44;;;;;;;4.70;1.43;;;12.50;91.20;;;;;;10196666;29;20246;-86
2022/01/30 07:19:47;;;;;;;7.10;1.80;;;12.70;92.10;;;;;;10196448;29;20231;-85
2022/01/30 07:24:49;;;;;;;8.83;2.07;;;12.70;92.00;;;;;;10195386;29;20585;-85
2022/01/30 07:29:52;;;;;;;5.67;1.70;;;12.60;92.40;;;;;;10213434;29;20308;-85
2022/01/30 07:34:54;;;;;;;4.83;1.60;;;12.80;92.00;;;;;;10195217;29;20325;-85
2022/01/30 07:39:59;;;;;;;6.03;1.50;;;12.90;91.90;;;;;;10216291;29;20294;-86
2022/01/30 07:45:04;;;;;;;5.73;1.87;;;12.80;91.50;;;;;;10174057;29;20222;-85
2022/01/30 07:50:07;;;;;;;3.43;1.27;;;12.80;91.40;;;;;;10212773;29;20286;-86
2022/01/30 07:55:10;;;;;;;2.67;0.83;;;12.80;91.40;;;;;;10194527;29;20657;-86
2022/01/30 08:00:13;;;;;;;3.33;1.47;;;12.70;91.60;;;;;;10211275;29;20286;-86
2022/01/30 08:05:15;;;;;;;5.67;2.03;;;12.90;91.60;;;;;;10210844;29;20262;-85
2022/01/30 08:10:18;;;;;;;7.97;2.00;;;13.10;91.20;;;;;;10188832;29;20630;-86
2022/01/30 08:15:22;;;;;;;5.63;1.43;;;12.80;90.60;;;;;;10188026;29;20255;-86
2022/01/30 08:20:27;;;;;;;5.13;1.43;;;12.80;91.50;;;;;;10201787;29;20274;-86
2022/01/30 08:25:32;;;;;;;3.57;1.43;;;12.90;91.00;;;;;;10215689;29;20251;-86
2022/01/30 08:30:35;;;;;;;3.43;1.40;;;13.00;90.90;;;;;;10209758;29;20305;-85
2022/01/30 08:35:39;;;;;;;7.07;2.10;;;13.00;90.80;;;;;;10209982;29;20258;-86
2022/01/30 08:40:42;;;;;;;7.30;2.33;;;12.80;91.10;;;;;;10221958;29;20645;-86
2022/01/30 08:45:44;;;;;;;4.13;1.73;;;12.90;91.10;;;;;;10194238;29;20668;-86
2022/01/30 08:50:48;;;;;;;7.40;2.10;;;12.70;91.30;;;;;;10209802;29;20232;-86
2022/01/30 08:55:51;;;;;;;11.37;3.10;;;13.00;90.50;;;;;;10202390;29;20254;-86
2022/01/30 09:00:53;;;;;;;10.70;1.93;;;12.80;90.90;;;;;;10183591;29;20639;-86
2022/01/30 09:05:56;;;;;;;8.73;3.53;;;12.90;90.40;;;;;;10188616;29;20234;-86
2022/01/30 09:11:05;;;;;;;4.37;1.93;;;12.90;90.70;;;;;;10191287;29;20759;-85
2022/01/30 09:16:07;;;;;;;9.30;2.20;;;12.80;90.90;;;;;;10192243;29;20651;-86
2022/01/30 09:21:11;;;;;;;7.43;3.13;;;12.90;90.70;;;;;;10207656;29;20592;-86
2022/01/30 09:26:14;;;;;;;13.13;3.27;;;12.80;90.80;;;;;;10190040;29;20266;-87
2022/01/30 09:31:16;;;;;;;15.20;3.27;;;10.70;93.20;;;;;;10208455;29;20627;-87
2022/01/30 09:36:19;;;;;;;11.53;3.87;;;11.90;92.40;;;;;;10205294;29;20368;-86
2022/01/30 09:41:25;;;;;;;17.17;3.90;;;11.30;93.70;;;;;;10191146;29;20616;-87
2022/01/30 09:46:32;;;;;;;14.93;3.97;;;10.70;94.60;;;;;;10199152;29;20305;-86
2022/01/30 09:51:39;;;;;;;9.80;2.37;;;11.20;90.80;;;;;;10196886;29;20759;-86
2022/01/30 09:56:42;;;;;;;6.17;3.00;;;12.10;90.00;;;;;;10179767;29;20258;-86
2022/01/30 10:01:44;;;;;;;6.13;2.83;;;12.20;92.80;;;;;;10218494;29;20242;-86
2022/01/30 10:06:59;;;;;;;12.37;2.63;;;12.50;91.50;;;;;;10207996;29;20255;-87
2022/01/30 10:12:22;;;;;;;13.37;2.83;;;12.40;91.60;;;;;;10207981;29;20198;-86
2022/01/30 10:17:36;;;;;;;7.47;3.63;;;12.30;91.90;;;;;;10207298;29;20238;-87
2022/01/30 10:23:01;;;;;;;13.00;3.20;;;12.60;91.90;;;;;;10194230;29;20277;-86
2022/01/30 10:28:13;;;;;;;8.17;3.37;;;12.40;91.80;;;;;;10207624;29;20263;-86
2022/01/30 10:33:22;;;;;;;7.80;2.77;;;12.50;91.30;;;;;;10189863;29;20662;-87
2022/01/30 10:38:34;;;;;;;12.43;2.97;;;12.40;92.60;;;;;;9863163;29;9999861;-86
2022/01/30 10:43:50;;;;;;;8.60;2.43;;;12.70;88.70;;;;;;10203881;29;20293;-86
2022/01/30 10:49:15;;;;;;;7.33;2.50;;;12.40;91.60;;;;;;10188260;29;20269;-87
2022/01/30 10:54:17;;;;;;;6.93;2.33;;;12.50;92.00;;;;;;10203868;29;20802;-87
2022/01/30 10:59:21;;;;;;;11.90;5.17;;;12.20;92.30;;;;;;10209989;29;20235;-87
2022/01/30 11:04:28;;;;;;;6.90;2.90;;;10.20;93.10;;;;;;10210599;29;20300;-87
2022/01/30 11:09:42;;;;;;;6.17;2.47;;;12.20;91.00;;;;;;10211361;29;20262;-87
2022/01/30 11:19:52;;;;;;;17.60;3.90;;;12.30;91.30;;;;;;10208087;29;20353;-87
2022/01/30 11:25:04;;;;;;;8.53;3.97;;;12.50;92.30;;;;;;10249857;29;20234;-86
2022/01/30 11:30:08;;;;;;;10.07;3.23;;;11.70;92.90;;;;;;10223181;29;20338;-86
2022/01/30 11:35:10;;;;;;;10.93;3.63;;;12.30;92.30;;;;;;10175488;29;20941;-86
2022/01/30 11:40:16;;;;;;;8.83;3.00;;;11.30;92.70;;;;;;10209424;29;20226;-87
2022/01/30 11:45:27;;;;;;;8.53;2.77;;;12.30;92.30;;;;;;10205866;29;20240;-87
2022/01/30 11:50:36;;;;;;;11.17;3.43;;;12.40;91.60;;;;;;10192041;29;20298;-87
2022/01/30 11:55:49;;;;;;;16.20;4.30;;;12.10;92.00;;;;;;10210103;29;20258;-89
2022/01/30 12:00:52;;;;;;;25.67;7.23;;;9.30;87.90;;;;;;10209030;29;20231;-86
2022/01/30 12:05:57;;;;;;;18.00;5.50;;;6.20;95.00;;;;;;10176230;29;20271;-86
2022/01/30 12:11:00;;;;;;;20.03;4.47;;;6.10;95.50;;;;;;10210920;29;20254;-88
2022/01/30 12:16:03;;;;;;;14.97;5.23;;;8.60;93.20;;;;;;10194485;29;20219;-85
2022/01/30 12:21:11;;;;;;;11.70;4.27;;;9.80;92.90;;;;;;10211128;29;20262;-86
2022/01/30 12:26:15;;;;;;;16.87;4.10;;;10.30;90.20;;;;;;10206433;29;20286;-91
2022/01/30 12:31:34;;;;;;;14.53;3.40;;;9.20;94.00;;;;;;10193961;29;20214;-91
2022/01/30 12:37:01;;;;;;;13.40;3.10;;;9.30;86.80;;;;;;10193674;29;20679;-90
2022/01/30 12:42:04;;;;;;;9.73;3.13;;;9.90;84.60;;;;;;10193640;29;20636;-90
2022/01/30 12:47:06;;;;;;;17.57;4.90;;;10.60;84.40;;;;;;10192519;29;20699;-90
2022/01/30 12:52:20;;;;;;;10.57;3.40;;;9.90;82.50;;;;;;10210294;29;20238;-90
2022/01/30 12:57:25;;;;;;;14.80;4.40;;;11.00;84.50;;;;;;10192773;29;20968;-90
2022/01/30 13:02:29;;;;;;;7.97;2.90;;;10.90;84.20;;;;;;10192129;29;20250;-90
2022/01/30 13:07:33;;;;;;;11.90;3.40;;;11.20;85.50;;;;;;10209341;29;20293;-90
2022/01/30 13:12:36;;;;;;;10.40;3.03;;;11.10;85.70;;;;;;10192163;29;20320;-90
2022/01/30 13:17:39;;;;;;;9.30;2.97;;;11.10;76.50;;;;;;10191252;29;20210;-91
2022/01/30 13:22:43;;;;;;;8.03;3.67;;;11.60;84.50;;;;;;10191419;29;20235;-89
2022/01/30 13:27:48;;;;;;;7.23;2.60;;;10.60;77.10;;;;;;10175160;29;20258;-90
2022/01/30 13:32:52;;;;;;;11.83;3.23;;;10.80;87.60;;;;;;10208107;29;20270;-90
2022/01/30 13:37:58;;;;;;;11.67;3.23;;;11.80;85.20;;;;;;10191832;29;20284;-91
2022/01/30 13:43:11;;;;;;;11.23;4.00;;;11.80;83.70;;;;;;10175908;29;20581;-90
2022/01/30 13:48:18;;;;;;;12.80;3.57;;;11.50;86.10;;;;;;10208253;29;20262;-90
2022/01/30 13:53:21;;;;;;;9.27;3.47;;;11.60;84.40;;;;;;10191427;29;20310;-90
2022/01/30 13:58:30;;;;;;;13.20;5.90;;;11.40;84.60;;;;;;10165832;29;20846;-86
2022/01/30 14:03:34;;;;;;;20.83;5.17;;;7.50;96.10;;;;;;10188573;29;20242;-87
2022/01/30 14:08:58;;;;;;;10.03;2.97;;;10.70;89.40;;;;;;10173625;29;20713;-87
2022/01/30 14:14:13;;;;;;;8.60;2.83;;;11.20;92.60;;;;;;10179867;29;20309;-87
2022/01/30 14:19:18;;;;;;;6.83;2.60;;;12.60;91.40;;;;;;10186429;29;20226;-86
2022/01/30 14:24:24;;;;;;;8.60;2.60;;;13.20;78.70;;;;;;10190732;29;20239;-87
2022/01/30 14:29:30;;;;;;;9.27;3.00;;;12.80;88.30;;;;;;10163944;29;20311;-86
2022/01/30 14:34:33;;;;;;;10.57;2.83;;;12.40;90.70;;;;;;10166155;29;20297;-87
2022/01/30 14:39:37;;;;;;;9.70;3.47;;;13.20;92.30;;;;;;10196225;29;20234;-86
2022/01/30 14:44:41;;;;;;;6.17;2.40;;;10.50;76.40;;;;;;10196608;29;20584;-87
2022/01/30 14:49:45;;;;;;;5.67;2.47;;;12.50;95.70;;;;;;10197437;29;20700;-87
2022/01/30 14:54:48;;;;;;;9.30;3.00;;;14.00;92.10;;;;;;10196833;29;20321;-87
2022/01/30 14:59:50;;;;;;;6.03;2.23;;;12.30;85.00;;;;;;10212426;29;20721;-87
2022/01/30 15:04:54;;;;;;;5.90;2.63;;;13.40;93.00;;;;;;10188781;29;20248;-87
2022/01/30 15:09:57;;;;;;;8.60;2.50;;;13.30;92.70;;;;;;10178073;29;20257;-87
2022/01/30 15:15:00;;;;;;;7.17;2.40;;;13.60;90.80;;;;;;10201857;29;20247;-87
2022/01/30 15:20:05;;;;;;;4.00;1.93;;;14.00;91.00;;;;;;10182379;29;20617;-87
2022/01/30 15:25:09;;;;;;;6.77;2.87;;;13.70;93.20;;;;;;10156275;29;20249;-87
2022/01/30 15:30:12;;;;;;;6.10;1.97;;;13.30;93.80;;;;;;10173136;29;20313;-87
2022/01/30 15:35:14;;;;;;;11.30;2.57;;;13.80;85.70;;;;;;9496496;29;10000728;-87
2022/01/30 15:40:17;;;;;;;8.97;2.20;;;13.50;92.10;;;;;;10192391;29;20679;-87
2022/01/30 15:50:25;;;;;;;5.47;2.03;;;14.00;92.00;;;;;;10189205;29;20725;-87
2022/01/30 15:55:27;;;;;;;8.13;1.93;;;14.00;90.60;;;;;;10172241;29;20264;-87
2022/01/30 16:00:29;;;;;;;8.80;2.87;;;13.90;86.90;;;;;;10185899;29;20300;-87
2022/01/30 16:05:32;;;;;;;7.87;2.20;;;13.40;92.20;;;;;;10191567;29;20706;-87
2022/01/30 16:10:35;;;;;;;8.30;2.50;;;13.50;93.20;;;;;;10185135;29;20238;-87
2022/01/30 16:15:38;;;;;;;6.67;2.03;;;13.60;88.70;;;;;;10173108;29;20324;-87
2022/01/30 16:20:43;;;;;;;6.57;2.13;;;13.40;92.20;;;;;;10177494;29;20236;-87
2022/01/30 16:25:45;;;;;;;7.10;2.30;;;13.00;93.60;;;;;;10160955;29;20758;-86
2022/01/30 16:30:48;;;;;;;5.40;2.20;;;12.70;89.70;;;;;;10152645;29;20315;-87
2022/01/30 16:35:51;;;;;;;7.00;2.60;;;13.30;92.60;;;;;;10168495;29;20302;-87
2022/01/30 16:40:53;;;;;;;6.47;2.67;;;13.70;91.30;;;;;;10186834;29;20310;-87
2022/01/30 16:46:09;;;;;;;4.33;2.60;;;13.50;89.70;;;;;;10187753;29;20233;-86
2022/01/30 16:51:11;;;;;;;5.23;2.00;;;13.60;86.00;;;;;;10188491;29;20235;-86
2022/01/30 16:56:15;;;;;;;7.23;2.60;;;14.00;89.50;;;;;;10169277;29;20787;-86
2022/01/30 17:01:20;;;;;;;4.70;2.00;;;13.40;81.80;;;;;;10188701;29;20284;-87
2022/01/30 17:06:43;;;;;;;7.13;2.20;;;13.90;87.30;;;;;;10186161;29;20239;-87
2022/01/30 17:11:50;;;;;;;7.00;2.70;;;13.90;88.60;;;;;;10189649;29;20237;-87
2022/01/30 17:16:55;;;;;;;5.90;2.03;;;13.90;88.50;;;;;;10169058;29;20338;-87
2022/01/30 17:21:58;;;;;;;6.67;2.07;;;13.70;87.90;;;;;;10183159;29;20283;-86
2022/01/30 17:27:00;;;;;;;5.53;2.53;;;11.90;81.70;;;;;;10167633;29;20259;-86
2022/01/30 17:32:03;;;;;;;4.20;2.33;;;8.10;73.30;;;;;;10188893;29;20231;-86
2022/01/30 17:37:05;;;;;;;17.97;3.87;;;9.40;77.50;;;;;;10171047;29;20791;-87
2022/01/30 17:42:08;;;;;;;5.77;1.73;;;6.60;93.90;;;;;;10170223;29;20262;-86
2022/01/30 17:47:11;;;;;;;6.50;3.43;;;12.90;89.20;;;;;;10170565;29;20294;-87
2022/01/30 17:52:13;;;;;;;9.50;2.60;;;13.60;85.00;;;;;;10170694;29;20231;-86
2022/01/30 17:57:18;;;;;;;8.67;1.90;;;13.50;77.80;;;;;;10186242;29;20250;-86
2022/01/30 18:02:20;;;;;;;6.00;2.60;;;13.70;84.90;;;;;;10167163;29;20246;-87
2022/01/30 18:07:28;;;;;;;14.53;4.50;;;13.50;86.00;;;;;;10185787;29;20258;-87
2022/01/30 18:12:30;;;;;;;6.77;2.20;;;7.50;77.00;;;;;;10165367;29;20231;-89
2022/01/30 18:17:33;;;;;;;10.80;3.53;;;13.40;87.20;;;;;;10169205;29;20660;-88
2022/01/30 18:22:36;;;;;;;11.97;3.43;;;6.80;81.30;;;;;;10173517;29;20255;-88
2022/01/30 18:27:39;;;;;;;6.43;2.60;;;5.60;90.20;;;;;;10185854;29;20291;-88
2022/01/30 18:32:41;;;;;;;9.17;3.17;;;10.60;94.90;;;;;;10184391;29;20234;-88
2022/01/30 18:37:52;;;;;;;15.07;3.23;;;11.30;88.40;;;;;;10180800;29;20338;-88
2022/01/30 18:42:54;;;;;;;15.03;4.90;;;12.90;75.70;;;;;;10173586;29;20239;-87
2022/01/30 18:47:57;;;;;;;17.10;4.67;;;8.40;73.40;;;;;;10189026;29;20242;-87
2022/01/30 18:53:00;;;;;;;21.30;4.97;;;4.90;89.30;;;;;;10206282;29;20690;-87
2022/01/30 18:58:02;;;;;;;8.47;3.80;;;4.60;91.90;;;;;;10187885;29;20682;-86
2022/01/30 19:03:05;;;;;;;9.37;2.87;;;9.90;99.30;;;;;;10165597;29;20239;-87
2022/01/30 19:08:09;;;;;;;10.20;3.90;;;12.80;83.00;;;;;;10167375;29;20227;-87
2022/01/30 19:13:13;;;;;;;12.60;2.80;;;13.40;83.10;;;;;;10181294;29;20235;-88
2022/01/30 19:18:15;;;;;;;11.47;3.63;;;13.00;84.40;;;;;;10169215;29;20310;-88
2022/01/30 19:23:18;;;;;;;10.77;3.50;;;13.80;74.10;;;;;;10158761;29;20235;-87
2022/01/30 19:28:21;;;;;;;9.40;2.80;;;13.80;81.60;;;;;;10176184;29;20683;-85
2022/01/30 19:33:23;;;;;;;11.30;2.97;;;13.50;82.30;;;;;;10176167;29;20776;-86
2022/01/30 19:38:26;;;;;;;14.33;4.07;;;13.60;79.90;;;;;;10174759;29;20262;-85
2022/01/30 19:43:28;;;;;;;9.40;3.20;;;8.90;75.40;;;;;;10171450;29;20270;-86
2022/01/30 19:48:32;;;;;;;7.83;2.77;;;13.20;84.60;;;;;;10169064;29;20285;-85
2022/01/30 19:53:34;;;;;;;6.60;2.80;;;13.60;83.00;;;;;;10233088;29;20277;-86
2022/01/30 19:58:37;;;;;;;12.70;3.53;;;13.80;81.90;;;;;;10216639;29;20255;-85
2022/01/30 20:03:40;;;;;;;13.77;4.17;;;13.40;82.80;;;;;;10166089;29;20290;-86
2022/01/30 20:08:43;;;;;;;7.67;3.30;;;13.00;78.90;;;;;;10158973;29;20296;-86
2022/01/30 20:13:46;;;;;;;15.63;4.20;;;13.60;82.00;;;;;;10181361;29;20285;-86
2022/01/30 20:18:48;;;;;;;16.67;4.00;;;12.60;79.40;;;;;;10180889;29;20312;-86
2022/01/30 20:23:51;;;;;;;5.10;2.50;;;12.80;82.00;;;;;;10178513;29;20244;-86
2022/01/30 20:28:53;;;;;;;10.57;2.97;;;13.20;83.20;;;;;;10193703;29;20321;-86
2022/01/30 20:33:56;;;;;;;14.57;4.17;;;13.20;82.90;;;;;;10161973;29;20317;-86
2022/01/30 20:39:00;;;;;;;7.93;2.83;;;13.00;81.40;;;;;;10176061;29;20264;-85
2022/01/30 20:44:03;;;;;;;9.27;3.27;;;13.50;81.60;;;;;;10175872;29;20232;-85
2022/01/30 20:49:06;;;;;;;9.80;2.90;;;13.30;77.10;;;;;;10191823;29;20295;-85
2022/01/30 20:54:10;;;;;;;10.23;3.83;;;13.20;81.00;;;;;;10197898;29;20311;-85
2022/01/30 20:59:12;;;;;;;10.53;3.43;;;12.90;83.20;;;;;;10172662;29;20311;-85
2022/01/30 21:04:18;;;;;;;10.60;3.00;;;12.90;76.10;;;;;;10175244;29;20625;-85
2022/01/30 21:09:23;;;;;;;11.53;3.13;;;13.40;81.00;;;;;;10175377;29;20290;-85
2022/01/30 21:14:25;;;;;;;11.73;3.40;;;12.20;84.90;;;;;;10202072;29;20234;-85
2022/01/30 21:19:30;;;;;;;13.07;3.70;;;13.00;80.60;;;;;;10171734;29;20239;-85
2022/01/30 21:24:33;;;;;;;12.53;4.27;;;12.80;81.50;;;;;;10206396;29;20234;-85
2022/01/30 21:29:36;;;;;;;18.20;4.37;;;13.20;80.40;;;;;;10206241;29;20684;-85
2022/01/30 21:34:39;;;;;;;8.97;3.00;;;10.30;81.40;;;;;;10189541;29;20271;-85
2022/01/30 21:39:42;;;;;;;7.67;3.13;;;13.10;82.50;;;;;;10189753;29;20250;-85
2022/01/30 21:44:44;;;;;;;8.90;3.80;;;12.90;80.90;;;;;;10191241;29;20630;-85
2022/01/30 21:49:47;;;;;;;13.47;3.50;;;13.20;78.90;;;;;;10206748;29;20243;-85
2022/01/30 21:54:50;;;;;;;12.00;3.40;;;12.60;81.80;;;;;;10174384;29;20263;-85
2022/01/30 21:59:52;;;;;;;11.77;4.47;;;12.90;82.00;;;;;;10207245;29;20238;-85
2022/01/30 22:04:55;;;;;;;7.50;3.17;;;13.00;76.90;;;;;;10185976;29;20266;-85
2022/01/30 22:09:57;;;;;;;8.10;2.43;;;12.40;84.00;;;;;;10174731;29;20244;-85
2022/01/30 22:15:04;;;;;;;7.27;2.80;;;13.50;78.00;;;;;;10189173;29;20298;-85
2022/01/30 22:20:08;;;;;;;7.87;2.60;;;13.30;80.50;;;;;;10207565;29;20230;-85
2022/01/30 22:25:11;;;;;;;10.37;2.80;;;13.20;80.00;;;;;;10172805;29;20243;-86
2022/01/30 22:30:18;;;;;;;11.93;3.20;;;13.20;80.90;;;;;;10174280;29;20239;-86
2022/01/30 22:35:21;;;;;;;11.50;2.87;;;13.30;79.50;;;;;;10189001;29;20667;-84
2022/01/30 22:40:25;;;;;;;9.23;3.50;;;12.80;80.60;;;;;;10212903;29;20282;-85
2022/01/30 22:45:28;;;;;;;11.47;3.40;;;13.20;80.90;;;;;;10173949;29;20243;-86
2022/01/30 22:50:30;;;;;;;6.77;2.97;;;12.70;79.30;;;;;;10188252;29;20694;-85
2022/01/30 22:55:33;;;;;;;7.37;2.50;;;12.70;76.10;;;;;;10193173;29;20297;-86
2022/01/30 23:00:35;;;;;;;10.03;3.10;;;13.10;80.80;;;;;;10183552;29;20367;-86
2022/01/30 23:05:38;;;;;;;8.13;3.07;;;13.30;80.10;;;;;;10196354;29;20278;-85
2022/01/30 23:10:41;;;;;;;5.83;2.10;;;13.00;80.60;;;;;;10196474;29;20747;-85
2022/01/30 23:15:43;;;;;;;8.93;2.77;;;13.30;80.00;;;;;;10208842;29;20673;-86
2022/01/30 23:20:46;;;;;;;8.37;2.93;;;13.30;79.50;;;;;;10196023;29;20243;-85
2022/01/30 23:25:49;;;;;;;8.63;2.93;;;13.00;79.70;;;;;;10195510;29;20302;-86
2022/01/30 23:30:53;;;;;;;2.93;2.17;;;13.30;79.50;;;;;;10156628;29;20235;-86
2022/01/30 23:35:55;;;;;;;9.83;3.10;;;13.40;79.10;;;;;;10156531;29;20260;-87
2022/01/30 23:40:59;;;;;;;11.13;2.43;;;13.40;79.00;;;;;;10156560;29;20575;-87
2022/01/30 23:46:01;;;;;;;12.13;3.20;;;13.40;79.20;;;;;;10155822;29;20216;-86
2022/01/30 23:51:04;;;;;;;8.30;2.50;;;13.20;73.80;;;;;;10156231;29;20236;-87
2022/01/30 23:56:07;;;;;;;7.90;2.30;;;13.10;79.50;;;;;;10117104;29;20734;-86
